createdAt,value
2018-11-25T00:01:08.767Z,0
2018-11-25T00:02:17.693Z,0
2018-11-25T00:03:26.370Z,0
2018-11-25T00:04:35.057Z,0
2018-11-25T00:05:44.004Z,0
2018-11-25T00:06:52.931Z,0
2018-11-25T00:08:02.132Z,0
2018-11-25T00:09:11.306Z,0
2018-11-25T00:10:20.742Z,0
2018-11-25T00:11:29.696Z,0
2018-11-25T00:12:38.376Z,0
2018-11-25T00:13:47.321Z,0
2018-11-25T00:14:55.986Z,0
2018-11-25T00:16:04.676Z,0
2018-11-25T00:17:13.351Z,0
2018-11-25T00:18:22.519Z,0
2018-11-25T00:19:31.191Z,0
2018-11-25T00:20:40.135Z,0
2018-11-25T00:21:48.816Z,0
2018-11-25T00:22:57.500Z,0
2018-11-25T00:24:06.180Z,0
2018-11-25T00:25:15.190Z,0
2018-11-25T00:26:23.900Z,0
2018-11-25T00:27:32.578Z,0
2018-11-25T00:28:41.293Z,0
2018-11-25T00:29:49.964Z,0
2018-11-25T00:30:58.651Z,0
2018-11-25T00:32:16.007Z,0
2018-11-25T00:33:24.701Z,0
2018-11-25T00:34:33.369Z,0
2018-11-25T00:35:42.312Z,0
2018-11-25T00:36:50.983Z,0
2018-11-25T00:37:59.691Z,0
2018-11-25T00:39:08.868Z,0
2018-11-25T00:40:17.611Z,0
2018-11-25T00:41:26.298Z,0
2018-11-25T00:42:35.235Z,0
2018-11-25T00:43:43.928Z,0
2018-11-25T00:44:52.599Z,0
2018-11-25T00:46:01.275Z,0
2018-11-25T00:47:09.956Z,0
2018-11-25T00:48:18.648Z,0
2018-11-25T00:49:28.095Z,0
2018-11-25T00:50:36.775Z,0
2018-11-25T00:51:45.708Z,0
2018-11-25T00:52:54.389Z,0
2018-11-25T00:54:03.102Z,0
2018-11-25T00:55:11.787Z,0
2018-11-25T00:56:20.715Z,0
2018-11-25T00:57:29.393Z,0
2018-11-25T00:58:38.067Z,0
2018-11-25T00:59:46.751Z,0
2018-11-25T01:00:55.677Z,0
2018-11-25T01:02:04.620Z,0
2018-11-25T01:03:13.302Z,0
2018-11-25T01:04:21.982Z,0
2018-11-25T01:05:30.676Z,0
2018-11-25T01:06:39.602Z,0
2018-11-25T01:07:48.548Z,0
2018-11-25T01:08:57.482Z,0
2018-11-25T01:10:06.165Z,0
2018-11-25T01:11:14.836Z,0
2018-11-25T01:12:23.552Z,0
2018-11-25T01:13:32.233Z,0
2018-11-25T01:14:41.170Z,0
2018-11-25T01:15:50.094Z,0
2018-11-25T01:16:58.774Z,0
2018-11-25T01:18:07.462Z,0
2018-11-25T01:19:16.188Z,0
2018-11-25T01:20:25.131Z,0
2018-11-25T01:21:34.060Z,0
2018-11-25T01:22:42.991Z,0
2018-11-25T01:23:51.669Z,0
2018-11-25T01:25:00.866Z,0
2018-11-25T01:26:09.816Z,0
2018-11-25T01:27:18.747Z,0
2018-11-25T01:28:27.672Z,0
2018-11-25T01:29:36.611Z,0
2018-11-25T01:30:45.546Z,0
2018-11-25T01:31:54.474Z,0
2018-11-25T01:33:03.150Z,0
2018-11-25T01:34:11.843Z,0
2018-11-25T01:35:20.523Z,0
2018-11-25T01:36:29.206Z,0
2018-11-25T01:37:38.135Z,0
2018-11-25T01:38:46.820Z,0
2018-11-25T01:39:55.494Z,0
2018-11-25T01:41:04.176Z,0
2018-11-25T01:42:12.859Z,0
2018-11-25T01:43:21.552Z,0
2018-11-25T01:44:30.228Z,0
2018-11-25T01:45:38.906Z,0
2018-11-25T01:46:47.841Z,0
2018-11-25T01:47:56.522Z,0
2018-11-25T01:49:05.215Z,0
2018-11-25T01:50:14.141Z,0
2018-11-25T01:51:23.075Z,0
2018-11-25T01:52:32.001Z,0
2018-11-25T01:53:40.688Z,0
2018-11-25T01:54:49.630Z,0
2018-11-25T01:55:58.577Z,0
2018-11-25T01:57:07.258Z,0
2018-11-25T01:58:15.941Z,0
2018-11-25T01:59:24.616Z,0
2018-11-25T02:00:33.291Z,0
2018-11-25T02:01:41.976Z,0
2018-11-25T02:02:50.910Z,0
2018-11-25T02:03:59.591Z,0
2018-11-25T02:05:08.520Z,0
2018-11-25T02:06:17.204Z,0
2018-11-25T02:07:26.118Z,0
2018-11-25T02:08:34.846Z,0
2018-11-25T02:09:43.521Z,0
2018-11-25T02:10:52.209Z,0
2018-11-25T02:12:00.884Z,0
2018-11-25T02:13:09.820Z,0
2018-11-25T02:14:18.487Z,0
2018-11-25T02:15:27.164Z,0
2018-11-25T02:16:35.840Z,0
2018-11-25T02:17:44.778Z,0
2018-11-25T02:18:53.467Z,0
2018-11-25T02:20:02.647Z,0
2018-11-25T02:21:11.580Z,0
2018-11-25T02:22:20.256Z,0
2018-11-25T02:23:28.942Z,0
2018-11-25T02:24:38.154Z,0
2018-11-25T02:25:46.830Z,0
2018-11-25T02:26:55.764Z,0
2018-11-25T02:28:04.458Z,0
2018-11-25T02:29:13.398Z,0
2018-11-25T02:30:22.355Z,0
2018-11-25T02:31:31.290Z,0
2018-11-25T02:32:39.973Z,0
2018-11-25T02:33:49.173Z,0
2018-11-25T02:34:57.845Z,0
2018-11-25T02:36:06.831Z,0
2018-11-25T02:37:15.560Z,0
2018-11-25T02:38:24.246Z,0
2018-11-25T02:39:32.938Z,0
2018-11-25T02:40:41.619Z,0
2018-11-25T02:41:51.057Z,0
2018-11-25T02:43:00.011Z,0
2018-11-25T02:44:09.210Z,0
2018-11-25T02:45:17.896Z,0
2018-11-25T02:46:26.828Z,0
2018-11-25T02:47:35.515Z,0
2018-11-25T02:48:44.188Z,0
2018-11-25T02:49:53.378Z,0
2018-11-25T02:51:02.302Z,0
2018-11-25T02:52:11.236Z,0
2018-11-25T02:53:19.924Z,0
2018-11-25T02:54:28.608Z,0
2018-11-25T02:55:37.547Z,0
2018-11-25T02:56:46.220Z,0
2018-11-25T02:57:54.916Z,0
2018-11-25T02:59:03.594Z,0
2018-11-25T03:00:12.534Z,0
2018-11-25T03:01:21.722Z,0
2018-11-25T03:02:30.404Z,0
2018-11-25T03:03:39.080Z,0
2018-11-25T03:04:47.771Z,0
2018-11-25T03:05:56.443Z,0
2018-11-25T03:07:05.124Z,0
2018-11-25T03:08:13.809Z,0
2018-11-25T03:09:22.497Z,0
2018-11-25T03:10:31.692Z,0
2018-11-25T03:11:40.646Z,0
2018-11-25T03:12:49.326Z,0
2018-11-25T03:13:58.262Z,0
2018-11-25T03:15:07.473Z,0
2018-11-25T03:16:16.145Z,0
2018-11-25T03:17:24.831Z,0
2018-11-25T03:18:33.502Z,0
2018-11-25T03:19:42.458Z,0
2018-11-25T03:20:51.396Z,0
2018-11-25T03:22:00.083Z,0
2018-11-25T03:23:09.018Z,0
2018-11-25T03:24:17.959Z,0
2018-11-25T03:25:26.637Z,0
2018-11-25T03:26:35.859Z,0
2018-11-25T03:27:44.844Z,0
2018-11-25T03:28:53.925Z,0
2018-11-25T03:30:02.992Z,0
2018-11-25T03:31:12.179Z,0
2018-11-25T03:32:21.243Z,0
2018-11-25T03:33:29.912Z,0
2018-11-25T03:34:38.750Z,0
2018-11-25T03:35:47.683Z,0
2018-11-25T03:36:56.876Z,0
2018-11-25T03:38:05.801Z,0
2018-11-25T03:39:14.537Z,0
2018-11-25T03:40:23.226Z,0
2018-11-25T03:41:32.493Z,0
2018-11-25T03:42:41.411Z,0
2018-11-25T03:43:50.092Z,0
2018-11-25T03:44:58.784Z,0
2018-11-25T03:46:07.453Z,0
2018-11-25T03:47:16.130Z,0
2018-11-25T03:48:24.808Z,0
2018-11-25T03:49:33.743Z,0
2018-11-25T03:50:42.423Z,0
2018-11-25T03:51:51.088Z,0
2018-11-25T03:52:59.777Z,0
2018-11-25T03:54:08.704Z,0
2018-11-25T03:55:17.655Z,0
2018-11-25T03:56:26.327Z,0
2018-11-25T03:57:35.521Z,0
2018-11-25T03:58:44.192Z,0
2018-11-25T03:59:52.881Z,0
2018-11-25T04:01:01.802Z,0
2018-11-25T04:02:10.746Z,0
2018-11-25T04:03:19.691Z,0
2018-11-25T04:04:28.635Z,0
2018-11-25T04:05:37.313Z,0
2018-11-25T04:06:46.240Z,0
2018-11-25T04:07:55.192Z,0
2018-11-25T04:09:04.120Z,0
2018-11-25T04:10:13.072Z,0
2018-11-25T04:11:21.812Z,0
2018-11-25T04:12:30.493Z,0
2018-11-25T04:13:39.168Z,0
2018-11-25T04:14:47.861Z,0
2018-11-25T04:15:57.048Z,0
2018-11-25T04:17:05.729Z,0
2018-11-25T04:18:14.400Z,0
2018-11-25T04:19:23.338Z,0
2018-11-25T04:20:32.010Z,0
2018-11-25T04:21:40.690Z,0
2018-11-25T04:22:49.372Z,0
2018-11-25T04:23:58.061Z,0
2018-11-25T04:25:07.015Z,0
2018-11-25T04:26:15.945Z,0
2018-11-25T04:27:24.637Z,0
2018-11-25T04:28:33.377Z,0
2018-11-25T04:29:42.583Z,0
2018-11-25T04:30:51.257Z,0
2018-11-25T04:31:59.942Z,0
2018-11-25T04:33:08.867Z,0
2018-11-25T04:34:17.555Z,0
2018-11-25T04:35:26.241Z,0
2018-11-25T04:36:35.438Z,0
2018-11-25T04:37:44.107Z,0
2018-11-25T04:38:53.054Z,0
2018-11-25T04:40:01.730Z,0
2018-11-25T04:41:10.418Z,0
2018-11-25T04:42:19.095Z,0
2018-11-25T04:43:27.770Z,0
2018-11-25T04:44:36.708Z,0
2018-11-25T04:45:45.381Z,0
2018-11-25T04:46:54.075Z,0
2018-11-25T04:48:03.269Z,0
2018-11-25T04:49:12.203Z,0
2018-11-25T04:50:21.142Z,0
2018-11-25T04:51:29.836Z,0
2018-11-25T04:52:38.767Z,0
2018-11-25T04:53:47.803Z,0
2018-11-25T04:54:56.733Z,0
2018-11-25T04:56:05.754Z,0
2018-11-25T04:57:14.444Z,0
2018-11-25T04:58:23.146Z,0
2018-11-25T04:59:31.815Z,0
2018-11-25T05:00:40.493Z,0
2018-11-25T05:01:49.176Z,0
2018-11-25T05:02:57.863Z,0
2018-11-25T05:04:06.810Z,0
2018-11-25T05:05:15.756Z,0
2018-11-25T05:06:24.442Z,0
2018-11-25T05:07:33.120Z,0
2018-11-25T05:08:41.816Z,0
2018-11-25T05:09:50.757Z,0
2018-11-25T05:10:59.438Z,0
2018-11-25T05:12:08.378Z,0
2018-11-25T05:13:17.059Z,0
2018-11-25T05:14:25.741Z,0
2018-11-25T05:15:34.674Z,0
2018-11-25T05:16:43.354Z,0
2018-11-25T05:17:52.299Z,0
2018-11-25T05:19:00.979Z,0
2018-11-25T05:20:09.914Z,0
2018-11-25T05:21:18.845Z,0
2018-11-25T05:22:27.781Z,0
2018-11-25T05:23:36.467Z,0
2018-11-25T05:24:45.145Z,0
2018-11-25T05:25:53.872Z,0
2018-11-25T05:27:02.544Z,0
2018-11-25T05:28:11.245Z,0
2018-11-25T05:29:20.430Z,0
2018-11-25T05:30:29.367Z,0
2018-11-25T05:31:38.562Z,0
2018-11-25T05:32:47.245Z,0
2018-11-25T05:33:56.178Z,0
2018-11-25T05:35:05.115Z,0
2018-11-25T05:36:14.036Z,0
2018-11-25T05:37:22.720Z,0
2018-11-25T05:38:31.395Z,0
2018-11-25T05:39:40.083Z,0
2018-11-25T05:40:48.764Z,0
2018-11-25T05:41:57.690Z,0
2018-11-25T05:43:06.367Z,0
2018-11-25T05:44:15.043Z,0
2018-11-25T05:45:23.981Z,0
2018-11-25T05:46:32.666Z,0
2018-11-25T05:47:41.591Z,0
2018-11-25T05:48:50.529Z,0
2018-11-25T05:49:59.205Z,0
2018-11-25T05:51:07.897Z,0
2018-11-25T05:52:16.823Z,0
2018-11-25T05:53:25.520Z,0
2018-11-25T05:54:34.187Z,0
2018-11-25T05:55:43.121Z,0
2018-11-25T05:56:51.804Z,0
2018-11-25T05:58:00.483Z,0
2018-11-25T05:59:09.163Z,0
2018-11-25T06:00:18.084Z,0
2018-11-25T06:01:27.031Z,0
2018-11-25T06:02:35.963Z,0
2018-11-25T06:03:44.926Z,0
2018-11-25T06:04:53.592Z,0
2018-11-25T06:06:02.778Z,0
2018-11-25T06:07:11.448Z,0
2018-11-25T06:08:20.146Z,0
2018-11-25T06:09:28.823Z,0
2018-11-25T06:10:37.755Z,0
2018-11-25T06:11:46.685Z,0
2018-11-25T06:12:55.369Z,0
2018-11-25T06:14:04.051Z,0
2018-11-25T06:15:12.982Z,0
2018-11-25T06:16:21.917Z,0
2018-11-25T06:17:30.598Z,0
2018-11-25T06:18:39.792Z,0
2018-11-25T06:19:48.999Z,0
2018-11-25T06:20:57.680Z,0
2018-11-25T06:22:06.347Z,0
2018-11-25T06:23:15.038Z,0
2018-11-25T06:24:23.724Z,0
2018-11-25T06:25:32.405Z,0
2018-11-25T06:26:41.081Z,0
2018-11-25T06:27:50.035Z,0
2018-11-25T06:28:58.978Z,0
2018-11-25T06:30:07.662Z,0
2018-11-25T06:31:16.584Z,0
2018-11-25T06:32:25.268Z,0
2018-11-25T06:33:34.216Z,0
2018-11-25T06:34:42.890Z,0
2018-11-25T06:35:51.577Z,0
2018-11-25T06:37:00.259Z,0
2018-11-25T06:38:09.212Z,0
2018-11-25T06:39:17.915Z,0
2018-11-25T06:40:26.607Z,0
2018-11-25T06:41:40.480Z,0
2018-11-25T06:42:49.669Z,4
2018-11-25T06:43:58.345Z,0
2018-11-25T06:45:07.025Z,0
2018-11-25T06:46:15.695Z,0
2018-11-25T06:47:24.580Z,4
2018-11-25T06:48:33.254Z,4
2018-11-25T06:49:41.957Z,8
2018-11-25T06:50:50.638Z,8
2018-11-25T06:51:59.322Z,8
2018-11-25T06:53:08.255Z,12
2018-11-25T06:54:17.194Z,8
2018-11-25T06:55:26.143Z,12
2018-11-25T06:56:35.327Z,12
2018-11-25T06:57:44.006Z,12
2018-11-25T06:58:52.681Z,12
2018-11-25T07:00:01.623Z,16
2018-11-25T07:01:10.304Z,16
2018-11-25T07:02:18.983Z,20
2018-11-25T07:03:27.662Z,20
2018-11-25T07:04:36.343Z,24
2018-11-25T07:05:45.018Z,24
2018-11-25T07:06:53.701Z,32
2018-11-25T07:08:02.406Z,36
2018-11-25T07:09:12.399Z,40
2018-11-25T07:10:21.349Z,44
2018-11-25T07:11:30.032Z,48
2018-11-25T07:12:38.738Z,48
2018-11-25T07:13:47.674Z,52
2018-11-25T07:14:56.608Z,52
2018-11-25T07:16:06.461Z,52
2018-11-25T07:17:15.489Z,56
2018-11-25T07:18:24.165Z,56
2018-11-25T07:19:33.352Z,56
2018-11-25T07:20:42.077Z,60
2018-11-25T07:21:51.028Z,68
2018-11-25T07:23:00.747Z,68
2018-11-25T07:24:09.425Z,76
2018-11-25T07:25:18.384Z,76
2018-11-25T07:26:27.327Z,76
2018-11-25T07:27:36.256Z,80
2018-11-25T07:28:44.936Z,84
2018-11-25T07:29:53.879Z,84
2018-11-25T07:31:02.551Z,88
2018-11-25T07:32:11.491Z,88
2018-11-25T07:33:20.170Z,84
2018-11-25T07:34:28.860Z,80
2018-11-25T07:35:37.536Z,84
2018-11-25T07:36:46.479Z,92
2018-11-25T07:37:55.667Z,104
2018-11-25T07:39:04.603Z,116
2018-11-25T07:40:13.543Z,128
2018-11-25T07:41:22.218Z,136
2018-11-25T07:42:30.896Z,132
2018-11-25T07:43:39.578Z,128
2018-11-25T07:44:48.256Z,132
2018-11-25T07:45:57.184Z,144
2018-11-25T07:47:06.135Z,168
2018-11-25T07:48:15.322Z,192
2018-11-25T07:49:24.251Z,232
2018-11-25T07:50:32.935Z,252
2018-11-25T07:51:41.614Z,264
2018-11-25T07:52:50.552Z,272
2018-11-25T07:53:59.490Z,288
2018-11-25T07:55:08.428Z,296
2018-11-25T07:56:17.106Z,304
2018-11-25T07:57:26.033Z,316
2018-11-25T07:58:34.998Z,316
2018-11-25T07:59:43.688Z,304
2018-11-25T08:00:52.363Z,308
2018-11-25T08:02:01.051Z,304
2018-11-25T08:03:09.731Z,304
2018-11-25T08:04:18.679Z,316
2018-11-25T08:05:27.369Z,328
2018-11-25T08:06:36.051Z,328
2018-11-25T08:07:44.995Z,336
2018-11-25T08:08:53.925Z,332
2018-11-25T08:10:02.859Z,336
2018-11-25T08:11:11.575Z,340
2018-11-25T08:12:20.772Z,344
2018-11-25T08:13:29.448Z,344
2018-11-25T08:14:38.139Z,340
2018-11-25T08:15:46.830Z,344
2018-11-25T08:16:55.515Z,376
2018-11-25T08:18:04.453Z,392
2018-11-25T08:19:13.394Z,404
2018-11-25T08:20:22.085Z,420
2018-11-25T08:21:30.772Z,452
2018-11-25T08:22:39.453Z,480
2018-11-25T08:23:48.391Z,496
2018-11-25T08:24:57.062Z,544
2018-11-25T08:26:05.752Z,580
2018-11-25T08:27:14.485Z,580
2018-11-25T08:28:23.820Z,548
2018-11-25T08:29:32.507Z,500
2018-11-25T08:30:41.439Z,516
2018-11-25T08:31:50.389Z,484
2018-11-25T08:32:59.340Z,452
2018-11-25T08:34:08.339Z,420
2018-11-25T08:35:17.023Z,440
2018-11-25T08:36:25.712Z,456
2018-11-25T08:37:34.647Z,480
2018-11-25T08:38:43.590Z,516
2018-11-25T08:39:52.272Z,544
2018-11-25T08:41:00.957Z,588
2018-11-25T08:42:09.652Z,612
2018-11-25T08:43:18.348Z,640
2018-11-25T08:44:27.025Z,632
2018-11-25T08:45:35.699Z,640
2018-11-25T08:46:44.382Z,636
2018-11-25T08:47:53.059Z,620
2018-11-25T08:49:01.756Z,680
2018-11-25T08:50:10.426Z,672
2018-11-25T08:51:19.112Z,656
2018-11-25T08:52:27.787Z,696
2018-11-25T08:53:36.476Z,736
2018-11-25T08:54:45.147Z,736
2018-11-25T08:55:53.823Z,708
2018-11-25T08:57:02.747Z,712
2018-11-25T08:58:11.691Z,696
2018-11-25T08:59:20.372Z,700
2018-11-25T09:00:29.739Z,736
2018-11-25T09:01:38.678Z,708
2018-11-25T09:02:47.353Z,688
2018-11-25T09:03:56.304Z,656
2018-11-25T09:05:04.980Z,632
2018-11-25T09:06:14.182Z,624
2018-11-25T09:07:23.359Z,664
2018-11-25T09:08:32.047Z,716
2018-11-25T09:09:40.739Z,780
2018-11-25T09:10:49.688Z,736
2018-11-25T09:11:58.356Z,684
2018-11-25T09:13:07.048Z,664
2018-11-25T09:14:15.725Z,652
2018-11-25T09:15:24.917Z,652
2018-11-25T09:16:33.591Z,676
2018-11-25T09:17:42.278Z,708
2018-11-25T09:18:50.962Z,792
2018-11-25T09:19:59.656Z,796
2018-11-25T09:21:08.597Z,832
2018-11-25T09:22:17.274Z,784
2018-11-25T09:23:25.961Z,720
2018-11-25T09:24:34.638Z,700
2018-11-25T09:25:43.592Z,720
2018-11-25T09:26:52.266Z,696
2018-11-25T09:28:01.477Z,640
2018-11-25T09:29:10.915Z,608
2018-11-25T09:30:19.606Z,616
2018-11-25T09:31:28.782Z,620
2018-11-25T09:32:37.467Z,608
2018-11-25T09:33:46.147Z,588
2018-11-25T09:34:54.834Z,596
2018-11-25T09:36:03.507Z,616
2018-11-25T09:37:12.434Z,648
2018-11-25T09:38:21.115Z,672
2018-11-25T09:39:29.797Z,688
2018-11-25T09:40:38.739Z,668
2018-11-25T09:41:47.419Z,676
2018-11-25T09:42:56.105Z,712
2018-11-25T09:44:04.783Z,732
2018-11-25T09:45:13.992Z,724
2018-11-25T09:46:22.671Z,772
2018-11-25T09:47:31.351Z,796
2018-11-25T09:48:40.027Z,800
2018-11-25T09:49:48.965Z,820
2018-11-25T09:50:57.903Z,840
2018-11-25T09:52:06.844Z,852
2018-11-25T09:53:15.521Z,840
2018-11-25T09:54:24.209Z,844
2018-11-25T09:55:33.834Z,876
2018-11-25T09:56:42.895Z,856
2018-11-25T09:57:52.093Z,828
2018-11-25T09:59:01.075Z,820
2018-11-25T10:00:09.757Z,880
2018-11-25T10:01:18.442Z,924
2018-11-25T10:02:27.128Z,940
2018-11-25T10:03:35.802Z,960
2018-11-25T10:04:44.489Z,996
2018-11-25T10:05:53.174Z,964
2018-11-25T10:07:01.860Z,1084
2018-11-25T10:08:11.064Z,1088
2018-11-25T10:09:19.750Z,1052
2018-11-25T10:10:28.425Z,1036
2018-11-25T10:11:37.122Z,1024
2018-11-25T10:12:46.345Z,1012
2018-11-25T10:13:55.032Z,1020
2018-11-25T10:15:03.709Z,1028
2018-11-25T10:16:12.388Z,1024
2018-11-25T10:17:21.077Z,1044
2018-11-25T10:18:29.758Z,1124
2018-11-25T10:19:38.441Z,1136
2018-11-25T10:20:47.363Z,1116
2018-11-25T10:21:56.044Z,1172
2018-11-25T10:23:05.254Z,1132
2018-11-25T10:24:14.201Z,1116
2018-11-25T10:25:22.874Z,1100
2018-11-25T10:26:31.822Z,1220
2018-11-25T10:27:40.507Z,1340
2018-11-25T10:28:49.190Z,1256
2018-11-25T10:29:57.873Z,1204
2018-11-25T10:31:06.588Z,1268
2018-11-25T10:32:15.273Z,1244
2018-11-25T10:33:24.219Z,1136
2018-11-25T10:34:32.899Z,984
2018-11-25T10:35:41.623Z,968
2018-11-25T10:36:50.301Z,992
2018-11-25T10:37:59.490Z,988
2018-11-25T10:39:08.183Z,968
2018-11-25T10:40:17.117Z,1020
2018-11-25T10:41:26.061Z,1008
2018-11-25T10:42:34.740Z,928
2018-11-25T10:43:43.422Z,936
2018-11-25T10:44:52.344Z,928
2018-11-25T10:46:01.039Z,924
2018-11-25T10:47:09.722Z,908
2018-11-25T10:48:18.412Z,972
2018-11-25T10:49:27.101Z,1004
2018-11-25T10:50:35.796Z,948
2018-11-25T10:51:44.988Z,908
2018-11-25T10:52:53.663Z,908
2018-11-25T10:54:02.606Z,856
2018-11-25T10:55:11.306Z,796
2018-11-25T10:56:21.383Z,812
2018-11-25T10:57:30.060Z,932
2018-11-25T10:58:38.753Z,960
2018-11-25T10:59:47.427Z,884
2018-11-25T11:00:56.114Z,892
2018-11-25T11:02:04.787Z,1040
2018-11-25T11:03:13.729Z,1120
2018-11-25T11:04:22.656Z,1092
2018-11-25T11:05:31.344Z,1028
2018-11-25T11:06:40.268Z,940
2018-11-25T11:07:48.949Z,904
2018-11-25T11:08:57.633Z,880
2018-11-25T11:10:06.837Z,868
2018-11-25T11:11:15.515Z,848
2018-11-25T11:12:24.182Z,836
2018-11-25T11:13:33.129Z,816
2018-11-25T11:14:41.804Z,836
2018-11-25T11:15:50.996Z,808
2018-11-25T11:17:00.759Z,812
2018-11-25T11:18:09.697Z,852
2018-11-25T11:19:18.370Z,876
2018-11-25T11:20:27.077Z,860
2018-11-25T11:21:35.760Z,832
2018-11-25T11:22:44.438Z,836
2018-11-25T11:23:53.122Z,828
2018-11-25T11:25:02.079Z,880
2018-11-25T11:26:13.574Z,876
2018-11-25T11:27:22.865Z,904
2018-11-25T11:28:31.817Z,900
2018-11-25T11:29:41.050Z,808
2018-11-25T11:30:49.736Z,792
2018-11-25T11:31:58.421Z,756
2018-11-25T11:33:07.611Z,732
2018-11-25T11:34:16.281Z,688
2018-11-25T11:35:24.978Z,664
2018-11-25T11:36:33.664Z,684
2018-11-25T11:37:42.592Z,712
2018-11-25T11:38:51.281Z,684
2018-11-25T11:40:00.208Z,656
2018-11-25T11:41:09.148Z,700
2018-11-25T11:42:17.826Z,744
2018-11-25T11:43:26.512Z,736
2018-11-25T11:44:35.453Z,708
2018-11-25T11:45:44.659Z,720
2018-11-25T11:46:53.599Z,752
2018-11-25T11:48:02.528Z,740
2018-11-25T11:49:11.223Z,740
2018-11-25T11:50:20.411Z,732
2018-11-25T11:51:32.515Z,752
2018-11-25T11:52:41.190Z,708
2018-11-25T11:53:50.134Z,724
2018-11-25T11:54:58.819Z,728
2018-11-25T11:56:07.516Z,668
2018-11-25T11:57:16.442Z,652
2018-11-25T11:58:25.389Z,668
2018-11-25T11:59:34.062Z,704
2018-11-25T12:00:42.745Z,740
2018-11-25T12:01:51.930Z,692
2018-11-25T12:03:00.875Z,688
2018-11-25T12:04:09.559Z,704
2018-11-25T12:05:18.512Z,684
2018-11-25T12:06:27.461Z,684
2018-11-25T12:07:36.193Z,640
2018-11-25T12:08:44.881Z,604
2018-11-25T12:09:53.559Z,576
2018-11-25T12:11:02.493Z,568
2018-11-25T12:12:11.417Z,560
2018-11-25T12:13:20.360Z,564
2018-11-25T12:14:29.048Z,568
2018-11-25T12:15:37.999Z,564
2018-11-25T12:16:46.680Z,556
2018-11-25T12:17:55.620Z,572
2018-11-25T12:19:04.564Z,600
2018-11-25T12:20:13.306Z,624
2018-11-25T12:21:21.983Z,632
2018-11-25T12:22:30.655Z,596
2018-11-25T12:23:39.854Z,596
2018-11-25T12:24:48.536Z,572
2018-11-25T12:25:57.227Z,588
2018-11-25T12:27:05.902Z,608
2018-11-25T12:28:14.588Z,568
2018-11-25T12:29:23.764Z,524
2018-11-25T12:30:32.719Z,532
2018-11-25T12:31:41.401Z,504
2018-11-25T12:32:50.348Z,504
2018-11-25T12:33:59.280Z,472
2018-11-25T12:35:08.486Z,456
2018-11-25T12:36:17.173Z,468
2018-11-25T12:37:25.856Z,496
2018-11-25T12:38:35.829Z,492
2018-11-25T12:39:44.511Z,512
2018-11-25T12:40:53.191Z,512
2018-11-25T12:42:02.383Z,520
2018-11-25T12:43:11.068Z,516
2018-11-25T12:44:20.007Z,504
2018-11-25T12:45:35.770Z,468
2018-11-25T12:46:44.698Z,476
2018-11-25T12:47:53.655Z,472
2018-11-25T12:49:02.334Z,488
2018-11-25T12:50:11.277Z,508
2018-11-25T12:51:19.958Z,548
2018-11-25T12:52:28.643Z,564
2018-11-25T12:53:37.577Z,560
2018-11-25T12:54:46.262Z,592
2018-11-25T12:55:54.941Z,600
2018-11-25T12:57:03.630Z,588
2018-11-25T12:58:12.311Z,588
2018-11-25T12:59:20.987Z,580
2018-11-25T13:00:29.670Z,564
2018-11-25T13:01:38.611Z,576
2018-11-25T13:02:47.296Z,548
2018-11-25T13:03:55.971Z,536
2018-11-25T13:05:04.900Z,556
2018-11-25T13:06:13.575Z,564
2018-11-25T13:07:22.259Z,536
2018-11-25T13:08:30.939Z,516
2018-11-25T13:09:39.624Z,504
2018-11-25T13:10:48.577Z,492
2018-11-25T13:11:59.008Z,500
2018-11-25T13:13:07.685Z,528
2018-11-25T13:14:16.625Z,480
2018-11-25T13:15:25.563Z,480
2018-11-25T13:16:34.247Z,484
2018-11-25T13:17:42.930Z,472
2018-11-25T13:18:51.623Z,516
2018-11-25T13:20:00.313Z,524
2018-11-25T13:21:08.988Z,524
2018-11-25T13:22:17.670Z,504
2018-11-25T13:23:26.605Z,464
2018-11-25T13:24:35.305Z,460
2018-11-25T13:25:43.978Z,472
2018-11-25T13:26:52.666Z,464
2018-11-25T13:28:01.860Z,436
2018-11-25T13:29:10.794Z,424
2018-11-25T13:30:20.238Z,420
2018-11-25T13:31:29.319Z,436
2018-11-25T13:32:38.246Z,452
2018-11-25T13:33:47.176Z,428
2018-11-25T13:34:55.851Z,436
2018-11-25T13:36:04.539Z,476
2018-11-25T13:37:13.223Z,452
2018-11-25T13:38:21.953Z,444
2018-11-25T13:39:30.894Z,432
2018-11-25T13:40:39.823Z,412
2018-11-25T13:41:48.753Z,424
2018-11-25T13:42:57.431Z,436
2018-11-25T13:44:06.371Z,408
2018-11-25T13:45:15.064Z,392
2018-11-25T13:46:24.254Z,396
2018-11-25T13:47:32.941Z,404
2018-11-25T13:48:42.153Z,392
2018-11-25T13:49:51.089Z,396
2018-11-25T13:50:59.773Z,372
2018-11-25T13:52:08.453Z,352
2018-11-25T13:53:17.399Z,368
2018-11-25T13:54:26.076Z,380
2018-11-25T13:55:35.032Z,388
2018-11-25T13:56:43.714Z,392
2018-11-25T13:57:52.410Z,392
2018-11-25T13:59:01.101Z,380
2018-11-25T14:00:10.037Z,376
2018-11-25T14:01:18.730Z,360
2018-11-25T14:02:27.406Z,344
2018-11-25T14:03:36.084Z,332
2018-11-25T14:04:45.281Z,348
2018-11-25T14:05:59.899Z,364
2018-11-25T14:07:08.587Z,356
2018-11-25T14:08:17.528Z,332
2018-11-25T14:09:26.204Z,288
2018-11-25T14:10:34.893Z,256
2018-11-25T14:11:43.838Z,236
2018-11-25T14:12:52.821Z,220
2018-11-25T14:14:01.765Z,216
2018-11-25T14:15:10.444Z,216
2018-11-25T14:16:19.380Z,220
2018-11-25T14:17:28.071Z,212
2018-11-25T14:18:36.759Z,208
2018-11-25T14:19:45.440Z,208
2018-11-25T14:20:54.125Z,180
2018-11-25T14:22:02.817Z,164
2018-11-25T14:23:11.752Z,156
2018-11-25T14:24:20.439Z,156
2018-11-25T14:25:29.649Z,148
2018-11-25T14:26:38.334Z,144
2018-11-25T14:27:47.533Z,140
2018-11-25T14:28:56.216Z,140
2018-11-25T14:30:12.972Z,132
2018-11-25T14:31:22.135Z,116
2018-11-25T14:32:31.074Z,112
2018-11-25T14:33:39.755Z,112
2018-11-25T14:34:48.684Z,120
2018-11-25T14:35:57.625Z,112
2018-11-25T14:37:06.584Z,112
2018-11-25T14:38:15.529Z,104
2018-11-25T14:39:24.454Z,92
2018-11-25T14:40:33.138Z,84
2018-11-25T14:41:42.075Z,88
2018-11-25T14:42:50.766Z,84
2018-11-25T14:43:59.949Z,80
2018-11-25T14:45:08.639Z,76
2018-11-25T14:46:17.323Z,76
2018-11-25T14:47:26.016Z,80
2018-11-25T14:48:34.706Z,80
2018-11-25T14:49:43.374Z,80
2018-11-25T14:50:52.315Z,80
2018-11-25T14:52:00.995Z,76
2018-11-25T14:53:09.945Z,76
2018-11-25T14:54:18.623Z,72
2018-11-25T14:55:27.312Z,72
2018-11-25T14:56:36.231Z,76
2018-11-25T14:57:45.183Z,76
2018-11-25T14:58:53.857Z,72
2018-11-25T15:00:02.543Z,64
2018-11-25T15:01:11.466Z,60
2018-11-25T15:02:20.414Z,60
2018-11-25T15:03:29.096Z,56
2018-11-25T15:04:42.997Z,56
2018-11-25T15:05:51.674Z,52
2018-11-25T15:07:00.608Z,52
2018-11-25T15:08:09.375Z,48
2018-11-25T15:09:18.562Z,44
2018-11-25T15:10:27.241Z,44
2018-11-25T15:11:35.910Z,44
2018-11-25T15:12:44.601Z,36
2018-11-25T15:13:53.278Z,36
2018-11-25T15:15:01.969Z,36
2018-11-25T15:16:10.639Z,32
2018-11-25T15:17:19.334Z,28
2018-11-25T15:18:28.027Z,28
2018-11-25T15:19:37.232Z,24
2018-11-25T15:20:45.898Z,24
2018-11-25T15:21:55.592Z,24
2018-11-25T15:23:04.539Z,20
2018-11-25T15:24:13.228Z,20
2018-11-25T15:25:21.908Z,20
2018-11-25T15:26:30.581Z,20
2018-11-25T15:27:39.529Z,16
2018-11-25T15:28:48.473Z,12
2018-11-25T15:29:57.429Z,12
2018-11-25T15:31:06.618Z,12
2018-11-25T15:32:15.593Z,8
2018-11-25T15:33:24.376Z,12
2018-11-25T15:34:33.055Z,8
2018-11-25T15:35:41.760Z,8
2018-11-25T15:36:50.702Z,8
2018-11-25T15:37:59.693Z,8
2018-11-25T15:39:08.645Z,8
2018-11-25T15:40:17.375Z,8
2018-11-25T15:41:26.084Z,8
2018-11-25T15:42:35.026Z,4
2018-11-25T15:43:43.705Z,4
2018-11-25T15:44:52.632Z,4
2018-11-25T15:46:01.816Z,4
2018-11-25T15:47:14.734Z,0
2018-11-25T15:48:23.674Z,0
2018-11-25T15:49:33.535Z,4
2018-11-25T15:50:42.735Z,0
2018-11-25T15:51:51.408Z,0
2018-11-25T15:53:01.823Z,0
2018-11-25T15:54:10.527Z,0
2018-11-25T15:55:19.243Z,0
2018-11-25T15:56:28.206Z,0
2018-11-25T15:57:37.164Z,0
2018-11-25T15:58:46.390Z,0
2018-11-25T15:59:55.098Z,0
2018-11-25T16:01:04.073Z,0
2018-11-25T16:02:13.043Z,0
2018-11-25T16:03:22.052Z,0
2018-11-25T16:04:31.344Z,0
2018-11-25T16:05:40.322Z,0
2018-11-25T16:06:49.076Z,0
2018-11-25T16:07:57.800Z,0
2018-11-25T16:09:06.503Z,0
2018-11-25T16:10:15.518Z,0
2018-11-25T16:11:24.199Z,0
2018-11-25T16:12:32.906Z,0
2018-11-25T16:13:42.133Z,0
2018-11-25T16:14:51.159Z,0
2018-11-25T16:16:00.151Z,0
2018-11-25T16:17:09.438Z,0
2018-11-25T16:18:18.651Z,0
2018-11-25T16:19:27.663Z,0
2018-11-25T16:20:36.382Z,0
2018-11-25T16:21:45.054Z,0
2018-11-25T16:22:53.993Z,0